createdAt,value
2018-05-13T00:02:10.439Z,86.00
2018-05-13T00:04:37.328Z,85.60
2018-05-13T00:07:05.561Z,85.20
2018-05-13T00:09:32.508Z,85.90
2018-05-13T00:12:00.064Z,86.80
2018-05-13T00:14:26.965Z,85.70
2018-05-13T00:16:53.844Z,87.80
2018-05-13T00:19:20.733Z,86.30
2018-05-13T00:21:48.311Z,86.60
2018-05-13T00:24:18.877Z,86.40
2018-05-13T00:26:45.737Z,86.10
2018-05-13T00:29:13.449Z,86.00
2018-05-13T00:31:40.314Z,86.60
2018-05-13T00:34:07.198Z,86.20
2018-05-13T00:36:34.772Z,86.30
2018-05-13T00:39:01.690Z,86.30
2018-05-13T00:41:28.564Z,86.00
2018-05-13T00:43:57.241Z,87.10
2018-05-13T00:46:24.127Z,87.00
2018-05-13T00:48:51.225Z,86.20
2018-05-13T00:51:18.132Z,85.50
2018-05-13T00:53:45.019Z,86.00
2018-05-13T00:56:11.906Z,87.00
2018-05-13T00:58:38.825Z,86.60
2018-05-13T01:01:06.085Z,86.20
2018-05-13T01:03:32.969Z,86.80
2018-05-13T01:05:59.852Z,87.30
2018-05-13T01:08:26.737Z,85.70
2018-05-13T01:10:54.350Z,87.00
2018-05-13T01:13:22.085Z,87.00
2018-05-13T01:15:48.977Z,86.50
2018-05-13T01:18:15.884Z,86.20
2018-05-13T01:20:43.289Z,88.10
2018-05-13T01:23:10.205Z,87.60
2018-05-13T01:25:38.817Z,88.20
2018-05-13T01:28:06.269Z,87.80
2018-05-13T01:30:33.144Z,86.50
2018-05-13T01:33:00.028Z,87.90
2018-05-13T01:35:27.726Z,87.90
2018-05-13T01:37:55.504Z,88.60
2018-05-13T01:40:22.380Z,87.80
2018-05-13T01:42:49.248Z,88.80
2018-05-13T01:45:16.129Z,89.00
2018-05-13T01:47:43.008Z,90.20
2018-05-13T01:50:12.438Z,90.30
2018-05-13T01:52:39.328Z,90.60
2018-05-13T01:55:06.230Z,90.20
2018-05-13T01:57:33.187Z,89.80
2018-05-13T02:00:00.765Z,88.30
2018-05-13T02:02:28.893Z,89.70
2018-05-13T02:04:55.862Z,89.70
2018-05-13T02:07:22.736Z,90.20
2018-05-13T02:09:50.367Z,90.10
2018-05-13T02:12:17.265Z,90.10
2018-05-13T02:14:44.661Z,90.50
2018-05-13T02:17:11.537Z,90.70
2018-05-13T02:19:39.157Z,91.20
2018-05-13T02:22:06.089Z,91.10
2018-05-13T02:24:32.967Z,90.90
2018-05-13T02:27:03.385Z,91.20
2018-05-13T02:29:30.267Z,91.00
2018-05-13T02:31:57.134Z,90.90
2018-05-13T02:34:24.544Z,90.90
2018-05-13T02:36:51.413Z,91.20
2018-05-13T02:39:19.418Z,91.30
2018-05-13T02:41:46.398Z,91.10
2018-05-13T02:44:13.274Z,91.10
2018-05-13T02:46:40.162Z,91.40
2018-05-13T02:49:07.116Z,91.40
2018-05-13T02:51:34.481Z,91.10
2018-05-13T02:54:01.404Z,91.10
2018-05-13T02:56:28.283Z,91.00
2018-05-13T02:58:55.925Z,91.00
2018-05-13T03:01:23.380Z,91.00
2018-05-13T03:03:52.867Z,91.10
2018-05-13T03:06:19.752Z,91.40
2018-05-13T03:08:47.371Z,91.50
2018-05-13T03:11:15.164Z,91.50
2018-05-13T03:13:42.790Z,91.70
2018-05-13T03:16:10.315Z,91.70
2018-05-13T03:18:37.830Z,91.70
2018-05-13T03:21:04.753Z,91.50
2018-05-13T03:23:31.667Z,91.40
2018-05-13T03:25:58.549Z,91.30
2018-05-13T03:28:26.405Z,91.50
2018-05-13T03:30:53.270Z,91.30
2018-05-13T03:33:20.617Z,91.50
2018-05-13T03:35:47.495Z,91.30
2018-05-13T03:38:15.150Z,91.10
2018-05-13T03:40:43.538Z,91.00
2018-05-13T03:43:10.441Z,91.20
2018-05-13T03:45:37.326Z,91.30
2018-05-13T03:48:05.344Z,90.90
2018-05-13T03:50:32.213Z,90.90
2018-05-13T03:53:01.850Z,90.70
2018-05-13T03:55:29.385Z,91.00
2018-05-13T03:57:56.324Z,91.10
2018-05-13T04:00:23.212Z,91.10
2018-05-13T04:02:53.317Z,91.20
2018-05-13T04:05:21.577Z,90.80
2018-05-13T04:11:15.943Z,91.20
2018-05-13T04:13:56.347Z,91.60
2018-05-13T04:16:25.128Z,91.00
2018-05-13T04:18:52.056Z,91.30
2018-05-13T04:21:20.160Z,91.50
2018-05-13T04:23:47.060Z,91.70
2018-05-13T04:26:13.926Z,91.70
2018-05-13T04:28:42.473Z,91.30
2018-05-13T04:31:09.344Z,91.40
2018-05-13T04:33:36.213Z,91.20
2018-05-13T04:36:03.912Z,90.80
2018-05-13T04:38:30.789Z,90.80
2018-05-13T04:40:58.152Z,91.20
2018-05-13T04:43:25.705Z,91.00
2018-05-13T04:45:52.572Z,91.50
2018-05-13T04:48:19.445Z,91.20
2018-05-13T04:50:46.904Z,91.30
2018-05-13T04:53:15.885Z,91.70
2018-05-13T04:55:42.767Z,91.60
2018-05-13T04:58:10.138Z,91.60
2018-05-13T05:00:37.018Z,91.70
2018-05-13T05:03:04.365Z,91.70
2018-05-13T05:05:32.045Z,91.90
2018-05-13T05:07:58.908Z,91.80
2018-05-13T05:10:25.785Z,92.10
2018-05-13T05:12:53.904Z,92.40
2018-05-13T05:15:20.832Z,92.00
2018-05-13T05:17:48.173Z,92.20
2018-05-13T05:20:15.864Z,92.00
2018-05-13T05:22:42.732Z,91.90
2018-05-13T05:25:09.613Z,92.20
2018-05-13T05:27:36.513Z,91.80
2018-05-13T05:30:04.485Z,91.50
2018-05-13T05:32:32.136Z,91.20
2018-05-13T05:34:59.393Z,91.20
2018-05-13T05:37:26.276Z,91.50
2018-05-13T05:39:53.183Z,91.20
2018-05-13T05:42:23.173Z,91.40
2018-05-13T05:44:50.044Z,91.40
2018-05-13T05:47:16.973Z,91.70
2018-05-13T05:49:43.985Z,91.50
2018-05-13T05:52:10.870Z,91.40
2018-05-13T05:54:38.220Z,91.60
2018-05-13T05:57:06.033Z,91.60
2018-05-13T05:59:33.376Z,91.60
2018-05-13T06:02:00.310Z,91.50
2018-05-13T06:04:30.444Z,91.50
2018-05-13T06:06:57.941Z,91.70
2018-05-13T06:09:25.569Z,91.60
2018-05-13T06:11:52.452Z,91.60
2018-05-13T06:14:19.329Z,91.30
2018-05-13T06:16:46.205Z,91.80
2018-05-13T06:19:15.261Z,91.50
2018-05-13T06:21:42.592Z,92.10
2018-05-13T06:24:09.666Z,91.50
2018-05-13T06:26:36.798Z,91.80
2018-05-13T06:29:03.672Z,91.90
2018-05-13T06:31:30.628Z,92.00
2018-05-13T06:33:58.736Z,92.10
2018-05-13T06:36:26.373Z,92.10
2018-05-13T06:38:53.301Z,92.00
2018-05-13T06:41:20.924Z,91.80
2018-05-13T06:43:50.483Z,91.50
2018-05-13T06:46:17.442Z,91.40
2018-05-13T06:48:45.448Z,91.50
2018-05-13T06:51:12.387Z,91.50
2018-05-13T06:53:40.310Z,91.50
2018-05-13T06:56:10.220Z,91.50
2018-05-13T06:58:37.121Z,91.50
2018-05-13T07:01:04.006Z,91.60
2018-05-13T07:03:31.376Z,91.60
2018-05-13T07:05:58.380Z,91.50
2018-05-13T07:08:26.523Z,91.80
2018-05-13T07:10:53.457Z,92.00
2018-05-13T07:13:20.370Z,92.10
2018-05-13T07:15:47.251Z,92.00
2018-05-13T07:18:14.569Z,92.20
2018-05-13T07:20:43.073Z,92.20
2018-05-13T07:23:11.660Z,92.20
2018-05-13T07:25:39.792Z,92.10
2018-05-13T07:28:06.652Z,92.10
2018-05-13T07:30:34.280Z,92.00
2018-05-13T07:33:02.908Z,92.00
2018-05-13T07:35:30.520Z,91.90
2018-05-13T07:37:57.488Z,91.90
2018-05-13T07:40:25.398Z,92.00
2018-05-13T07:42:52.304Z,91.90
2018-05-13T07:45:20.618Z,92.10
2018-05-13T07:47:48.012Z,92.20
2018-05-13T07:50:14.884Z,92.10
2018-05-13T07:52:41.744Z,92.00
2018-05-13T07:55:08.754Z,92.10
2018-05-13T07:57:36.268Z,91.80
2018-05-13T08:00:03.186Z,92.10
2018-05-13T08:02:30.260Z,91.80
2018-05-13T08:04:57.128Z,91.50
2018-05-13T08:07:24.542Z,91.50
2018-05-13T08:09:52.261Z,91.20
2018-05-13T08:12:19.140Z,91.20
2018-05-13T08:14:46.752Z,91.40
2018-05-13T08:17:15.988Z,91.40
2018-05-13T08:19:42.844Z,91.60
2018-05-13T08:22:11.284Z,91.80
2018-05-13T08:24:38.157Z,91.80
2018-05-13T08:27:05.105Z,91.50
2018-05-13T08:29:32.032Z,91.80
2018-05-13T08:31:59.070Z,91.60
2018-05-13T08:34:27.043Z,92.10
2018-05-13T08:36:55.483Z,91.80
2018-05-13T08:39:22.376Z,91.90
2018-05-13T08:41:49.243Z,91.80
2018-05-13T08:44:16.965Z,91.60
2018-05-13T08:46:43.901Z,91.60
2018-05-13T08:49:10.885Z,91.70
2018-05-13T08:51:37.885Z,91.60
2018-05-13T08:54:04.918Z,91.50
2018-05-13T08:56:31.889Z,91.70
2018-05-13T08:58:59.697Z,91.70
2018-05-13T09:01:26.591Z,91.60
2018-05-13T09:03:53.641Z,91.40
2018-05-13T09:06:20.504Z,91.10
2018-05-13T09:08:48.194Z,91.20
2018-05-13T09:11:16.907Z,91.80
2018-05-13T09:13:43.844Z,91.80
2018-05-13T09:16:12.820Z,91.40
2018-05-13T09:18:39.724Z,91.50
2018-05-13T09:21:06.676Z,91.10
2018-05-13T09:23:34.426Z,91.70
2018-05-13T09:26:01.304Z,91.80
2018-05-13T09:28:28.392Z,91.40
2018-05-13T09:30:55.691Z,91.80
2018-05-13T09:33:24.033Z,92.10
2018-05-13T09:35:51.224Z,91.60
2018-05-13T09:38:19.013Z,91.30
2018-05-13T09:40:45.976Z,91.70
2018-05-13T09:43:12.857Z,91.70
2018-05-13T09:45:40.532Z,91.60
2018-05-13T09:48:07.573Z,91.60
2018-05-13T09:50:34.504Z,91.80
2018-05-13T09:53:02.110Z,92.00
2018-05-13T09:55:29.767Z,91.60
2018-05-13T09:57:57.774Z,91.50
2018-05-13T10:00:26.181Z,91.20
2018-05-13T10:02:53.130Z,91.40
2018-05-13T10:05:20.104Z,91.50
2018-05-13T10:07:47.949Z,91.70
2018-05-13T10:10:15.185Z,91.50
2018-05-13T10:12:43.519Z,91.30
2018-05-13T10:15:10.843Z,91.50
2018-05-13T10:17:38.296Z,91.90
2018-05-13T10:20:05.389Z,92.00
2018-05-13T10:22:32.387Z,91.90
2018-05-13T10:24:59.932Z,92.00
2018-05-13T10:27:26.888Z,91.50
2018-05-13T10:29:53.845Z,91.80
2018-05-13T10:32:22.045Z,91.90
2018-05-13T10:34:49.006Z,91.90
2018-05-13T10:37:16.277Z,92.10
2018-05-13T10:39:43.128Z,91.90
2018-05-13T10:42:10.861Z,92.10
2018-05-13T10:44:37.796Z,92.10
2018-05-13T10:47:05.512Z,91.90
2018-05-13T10:49:32.540Z,91.80
2018-05-13T10:52:00.307Z,92.20
2018-05-13T10:54:28.627Z,92.10
2018-05-13T10:56:56.687Z,91.50
2018-05-13T10:59:25.063Z,91.60
2018-05-13T11:01:52.653Z,91.60
2018-05-13T11:04:19.612Z,91.90
2018-05-13T11:06:46.963Z,91.60
2018-05-13T11:09:13.900Z,92.00
2018-05-13T11:11:41.708Z,92.20
2018-05-13T11:14:10.770Z,92.10
2018-05-13T11:16:37.784Z,91.50
2018-05-13T11:19:05.292Z,92.00
2018-05-13T11:21:32.524Z,91.90
2018-05-13T11:23:59.444Z,91.80
2018-05-13T11:26:26.467Z,92.00
2018-05-13T11:28:53.724Z,91.80
2018-05-13T11:31:21.661Z,91.90
2018-05-13T11:33:48.581Z,91.90
2018-05-13T11:36:15.681Z,91.20
2018-05-13T11:38:42.596Z,90.90
2018-05-13T11:41:09.569Z,91.00
2018-05-13T11:43:37.544Z,91.20
2018-05-13T11:46:04.429Z,91.70
2018-05-13T11:48:31.312Z,91.90
2018-05-13T11:50:58.233Z,91.20
2018-05-13T11:53:25.130Z,91.10
2018-05-13T11:55:52.960Z,90.90
2018-05-13T11:58:19.964Z,91.20
2018-05-13T12:00:47.635Z,91.30
2018-05-13T12:03:14.600Z,91.30
2018-05-13T12:05:42.144Z,90.80
2018-05-13T12:08:12.257Z,91.40
2018-05-13T12:10:39.260Z,91.50
2018-05-13T12:13:07.032Z,91.20
2018-05-13T12:15:34.068Z,91.50
2018-05-13T12:18:01.884Z,91.60
2018-05-13T12:20:29.209Z,91.70
2018-05-13T12:22:56.116Z,91.90
2018-05-13T12:25:23.659Z,92.00
2018-05-13T12:27:51.174Z,92.00
2018-05-13T12:30:18.095Z,92.10
2018-05-13T12:32:47.870Z,92.20
2018-05-13T12:35:14.752Z,91.90
2018-05-13T12:37:41.733Z,91.60
2018-05-13T12:40:09.349Z,91.80
2018-05-13T12:42:36.721Z,91.80
2018-05-13T12:45:04.493Z,91.90
2018-05-13T12:47:32.396Z,91.90
2018-05-13T12:50:00.028Z,91.20
2018-05-13T12:52:28.841Z,91.40
2018-05-13T12:54:55.720Z,91.40
2018-05-13T12:57:22.720Z,91.30
2018-05-13T12:59:50.400Z,91.40
2018-05-13T13:02:17.393Z,91.40
2018-05-13T13:04:46.079Z,91.60
2018-05-13T13:07:13.126Z,91.40
2018-05-13T13:09:41.777Z,91.40
2018-05-13T13:12:09.884Z,91.40
2018-05-13T13:14:36.928Z,91.10
2018-05-13T13:17:04.219Z,91.50
2018-05-13T13:19:31.132Z,91.50
2018-05-13T13:21:58.083Z,91.60
2018-05-13T13:24:24.960Z,91.60
2018-05-13T13:26:51.855Z,91.80
2018-05-13T13:29:18.908Z,91.70
2018-05-13T13:31:45.961Z,91.80
2018-05-13T13:34:14.295Z,92.00
2018-05-13T13:36:41.281Z,91.70
2018-05-13T13:39:08.145Z,92.00
2018-05-13T13:41:35.846Z,91.90
2018-05-13T13:44:02.888Z,91.90
2018-05-13T13:46:29.992Z,91.70
2018-05-13T13:48:57.616Z,91.70
2018-05-13T13:51:24.573Z,91.90
2018-05-13T13:53:53.508Z,92.00
2018-05-13T13:56:22.145Z,91.70
2018-05-13T13:58:51.504Z,92.10
2018-05-13T14:01:18.556Z,91.80
2018-05-13T14:03:45.868Z,91.50
2018-05-13T14:06:12.892Z,91.80
2018-05-13T14:08:39.913Z,91.80
2018-05-13T14:11:09.348Z,91.90
2018-05-13T14:13:36.219Z,91.90
2018-05-13T14:16:07.677Z,92.00
2018-05-13T14:18:35.436Z,91.70
2018-05-13T14:21:02.829Z,91.70
2018-05-13T14:23:30.748Z,92.00
2018-05-13T14:25:57.952Z,91.80
2018-05-13T14:28:25.037Z,91.90
2018-05-13T14:30:52.136Z,91.60
2018-05-13T14:33:19.748Z,92.10
2018-05-13T14:35:47.403Z,91.90
2018-05-13T14:38:14.368Z,91.70
2018-05-13T14:40:42.721Z,91.60
2018-05-13T14:43:09.653Z,91.60
2018-05-13T14:45:38.909Z,91.40
2018-05-13T14:48:07.897Z,91.50
2018-05-13T14:50:36.003Z,91.50
2018-05-13T14:53:03.362Z,91.80
2018-05-13T14:55:30.592Z,91.40
2018-05-13T14:57:58.262Z,91.10
2018-05-13T15:00:28.222Z,91.40
2018-05-13T15:02:56.225Z,91.30
2018-05-13T15:05:24.782Z,91.50
2018-05-13T15:07:51.834Z,91.70
2018-05-13T15:10:20.824Z,91.90
2018-05-13T15:12:49.872Z,91.60
2018-05-13T15:15:18.708Z,91.60
2018-05-13T15:17:47.628Z,91.70
2018-05-13T15:20:14.879Z,91.80
2018-05-13T15:22:42.198Z,91.60
2018-05-13T15:25:12.023Z,91.70
2018-05-13T15:27:41.059Z,91.70
2018-05-13T15:30:07.928Z,91.60
2018-05-13T15:32:36.138Z,91.80
2018-05-13T15:35:04.287Z,91.80
2018-05-13T15:37:31.287Z,91.70
2018-05-13T15:39:58.292Z,91.70
2018-05-13T15:42:26.187Z,91.80
2018-05-13T15:44:53.103Z,91.50
2018-05-13T15:47:21.178Z,91.50
2018-05-13T15:49:48.895Z,91.50
2018-05-13T15:52:16.352Z,91.50
2018-05-13T15:54:43.336Z,91.50
2018-05-13T15:57:10.461Z,91.80
2018-05-13T15:59:37.413Z,91.90
2018-05-13T16:02:04.391Z,92.20
2018-05-13T16:04:31.529Z,91.80
2018-05-13T16:06:58.421Z,91.80
2018-05-13T16:09:27.086Z,91.90
2018-05-13T16:11:54.072Z,92.40
2018-05-13T16:14:22.336Z,92.10
2018-05-13T16:16:51.019Z,92.00
2018-05-13T16:19:19.149Z,91.70
2018-05-13T16:21:46.035Z,92.00
2018-05-13T16:24:13.950Z,91.90
2018-05-13T16:26:41.027Z,91.80
2018-05-13T16:29:09.020Z,91.90
2018-05-13T16:31:41.393Z,91.80
2018-05-13T16:34:08.736Z,91.80
2018-05-13T16:36:38.644Z,92.10
2018-05-13T16:39:05.895Z,92.30
2018-05-13T16:41:33.688Z,92.30
2018-05-13T16:44:01.990Z,92.30
2018-05-13T16:46:35.746Z,92.20
2018-05-13T16:49:03.960Z,92.40
2018-05-13T16:51:33.715Z,92.60
2018-05-13T16:54:07.074Z,92.70
2018-05-13T16:56:34.293Z,92.70
2018-05-13T16:59:18.789Z,92.60
2018-05-13T17:01:47.624Z,92.40
2018-05-13T17:04:16.922Z,92.30
2018-05-13T17:06:44.748Z,92.10
2018-05-13T17:09:15.193Z,92.20
2018-05-13T17:11:50.231Z,92.40
2018-05-13T17:14:20.280Z,92.50
2018-05-13T17:16:49.350Z,92.40
2018-05-13T17:19:21.958Z,92.40
2018-05-13T17:21:50.741Z,92.40
2018-05-13T17:24:18.236Z,92.30
2018-05-13T17:26:48.167Z,92.00
2018-05-13T17:29:18.731Z,91.90
2018-05-13T17:31:45.717Z,92.00
2018-05-13T17:34:13.933Z,91.80
2018-05-13T17:36:40.875Z,91.70
2018-05-13T17:39:09.029Z,92.10
2018-05-13T17:41:36.543Z,92.20
2018-05-13T17:44:03.547Z,92.20
2018-05-13T17:46:30.697Z,92.30
2018-05-13T17:48:58.484Z,92.20
2018-05-13T17:51:25.464Z,91.90
2018-05-13T17:53:52.735Z,92.00
2018-05-13T17:56:20.218Z,92.30
2018-05-13T17:58:47.460Z,92.00
2018-05-13T18:01:14.342Z,92.20
2018-05-13T18:03:43.884Z,92.60
2018-05-13T18:06:10.761Z,92.60
2018-05-13T18:08:40.467Z,92.50
2018-05-13T18:11:08.640Z,92.70
2018-05-13T18:13:35.511Z,92.70
2018-05-13T18:16:03.163Z,92.40
2018-05-13T18:18:31.537Z,92.70
2018-05-13T18:21:00.201Z,92.50
2018-05-13T18:23:27.120Z,92.50
2018-05-13T18:25:53.995Z,92.20
2018-05-13T18:28:20.878Z,92.00
2018-05-13T18:30:47.757Z,92.20
2018-05-13T18:33:14.644Z,92.30
2018-05-13T18:35:41.528Z,92.30
2018-05-13T18:38:08.392Z,92.30
2018-05-13T18:40:36.029Z,92.20
2018-05-13T18:43:03.240Z,92.00
2018-05-13T18:45:30.103Z,91.70
2018-05-13T18:47:57.000Z,92.20
2018-05-13T18:50:23.903Z,92.20
2018-05-13T18:52:50.764Z,92.10
2018-05-13T18:55:19.039Z,92.20
2018-05-13T18:57:46.033Z,92.40
2018-05-13T19:00:13.916Z,92.40
2018-05-13T19:02:42.325Z,92.20
2018-05-13T19:05:09.196Z,92.30
2018-05-13T19:07:37.050Z,92.50
2018-05-13T19:10:04.062Z,92.40
2018-05-13T19:12:33.485Z,92.40
2018-05-13T19:15:01.427Z,92.30
2018-05-13T19:17:28.401Z,92.40
2018-05-13T19:19:56.632Z,92.30
2018-05-13T19:22:25.068Z,92.20
2018-05-13T19:24:52.624Z,92.50
2018-05-13T19:27:19.668Z,92.30
2018-05-13T19:29:46.533Z,92.30
2018-05-13T19:32:14.066Z,92.40
2018-05-13T19:34:40.965Z,92.50
2018-05-13T19:37:07.888Z,92.50
2018-05-13T19:39:34.772Z,92.60
2018-05-13T19:42:01.984Z,92.50
2018-05-13T19:44:29.224Z,92.50
2018-05-13T19:46:56.221Z,92.50
2018-05-13T19:49:23.740Z,92.90
2018-05-13T19:51:50.620Z,92.40
2018-05-13T19:54:18.807Z,92.80
2018-05-13T19:56:45.765Z,92.60
2018-05-13T19:59:12.771Z,92.40
2018-05-13T20:01:41.749Z,92.50
2018-05-13T20:04:09.895Z,92.40
2018-05-13T20:06:37.688Z,92.60
2018-05-13T20:09:06.526Z,92.60
2018-05-13T20:11:33.508Z,92.70
2018-05-13T20:14:00.437Z,92.50
2018-05-13T20:16:28.701Z,92.20
2018-05-13T20:18:58.159Z,92.20
2018-05-13T20:21:26.926Z,92.30
2018-05-13T20:23:54.231Z,92.00
2018-05-13T20:26:21.164Z,92.00
2018-05-13T20:28:48.093Z,92.40
2018-05-13T20:31:15.733Z,91.50
2018-05-13T20:33:42.614Z,91.50
2018-05-13T20:36:09.976Z,91.70
2018-05-13T20:38:37.528Z,91.80
2018-05-13T20:41:05.013Z,91.70
2018-05-13T20:43:31.885Z,91.80
2018-05-13T20:45:59.557Z,91.80
2018-05-13T20:48:27.206Z,91.50
2018-05-13T20:50:54.112Z,91.50
2018-05-13T20:53:21.769Z,91.40
2018-05-13T20:55:48.772Z,91.30
2018-05-13T20:58:16.865Z,91.70
2018-05-13T21:00:43.768Z,91.70
2018-05-13T21:03:11.828Z,91.80
2018-05-13T21:05:39.440Z,92.00
2018-05-13T21:08:06.768Z,92.20
2018-05-13T21:10:34.268Z,92.00
2018-05-13T21:13:01.201Z,92.00
2018-05-13T21:15:28.665Z,92.00
2018-05-13T21:17:55.540Z,92.00
2018-05-13T21:20:22.408Z,91.90
2018-05-13T21:22:50.612Z,91.90
2018-05-13T21:25:20.684Z,92.10
2018-05-13T21:27:48.617Z,92.10
2018-05-13T21:30:16.054Z,92.20
2018-05-13T21:32:44.481Z,92.20
2018-05-13T21:35:11.371Z,92.10
2018-05-13T21:37:42.016Z,92.20
2018-05-13T21:40:08.880Z,92.10
2018-05-13T21:42:35.813Z,92.20
2018-05-13T21:45:03.851Z,92.20
2018-05-13T21:47:31.478Z,92.10
2018-05-13T21:49:59.335Z,92.10
2018-05-13T21:52:26.248Z,92.00
2018-05-13T21:54:53.270Z,92.10
2018-05-13T21:57:21.352Z,91.80
2018-05-13T21:59:48.992Z,91.10
2018-05-13T22:02:16.858Z,91.10
2018-05-13T22:04:57.012Z,90.80
2018-05-13T22:07:23.897Z,90.80
2018-05-13T22:09:50.840Z,91.20
2018-05-13T22:12:19.379Z,91.40
2018-05-13T22:14:46.257Z,91.50
2018-05-13T22:17:13.245Z,91.60
2018-05-13T22:19:40.516Z,91.70
2018-05-13T22:22:08.253Z,91.70
2018-05-13T22:24:35.790Z,91.70
2018-05-13T22:27:04.269Z,91.90
2018-05-13T22:29:31.163Z,92.10
2018-05-13T22:31:58.040Z,92.00
2018-05-13T22:34:25.243Z,92.10
2018-05-13T22:36:53.280Z,92.20
2018-05-13T22:39:20.332Z,92.20
2018-05-13T22:41:47.241Z,92.50
2018-05-13T22:44:14.868Z,92.50
2018-05-13T22:46:41.774Z,92.40
2018-05-13T22:49:10.224Z,92.20
2018-05-13T22:51:37.851Z,92.40
2018-05-13T22:54:04.729Z,92.40
2018-05-13T22:56:32.735Z,92.60
2018-05-13T22:59:01.384Z,92.60
2018-05-13T23:01:28.418Z,92.50
2018-05-13T23:03:55.309Z,92.60
2018-05-13T23:06:22.205Z,92.60
2018-05-13T23:08:49.077Z,92.70
2018-05-13T23:11:16.614Z,92.60
2018-05-13T23:13:44.376Z,92.50
2018-05-13T23:16:11.271Z,92.60
2018-05-13T23:18:38.568Z,92.60
2018-05-13T23:21:05.445Z,92.60
2018-05-13T23:23:32.348Z,92.60
2018-05-13T23:25:59.261Z,92.40
2018-05-13T23:28:27.118Z,92.20
2018-05-13T23:30:53.989Z,92.40
2018-05-13T23:33:20.869Z,92.50
2018-05-13T23:35:47.797Z,92.60
2018-05-13T23:38:14.885Z,92.80
2018-05-13T23:40:42.308Z,92.70
2018-05-13T23:43:09.941Z,92.70
2018-05-13T23:45:36.861Z,92.80
2018-05-13T23:48:04.868Z,92.70
2018-05-13T23:50:32.944Z,92.60
2018-05-13T23:52:59.834Z,92.80
2018-05-13T23:55:27.856Z,92.70
2018-05-13T23:57:54.766Z,92.80
